sensor_id;sensor_type;location;lat;lon;timestamp;P1;durP1;ratioP1;P2;durP2;ratioP2
72584;SDS011;60618;40.084;32.908;2023-01-26T00:01:17;7.38;;;2.95;;
72584;SDS011;60618;40.084;32.908;2023-01-26T00:03:49;8.88;;;2.90;;
72584;SDS011;60618;40.084;32.908;2023-01-26T00:06:17;8.70;;;3.22;;
72584;SDS011;60618;40.084;32.908;2023-01-26T00:08:46;8.90;;;3.20;;
72584;SDS011;60618;40.084;32.908;2023-01-26T00:11:16;9.52;;;3.58;;
72584;SDS011;60618;40.084;32.908;2023-01-26T00:13:45;11.88;;;3.58;;
72584;SDS011;60618;40.084;32.908;2023-01-26T00:16:15;9.23;;;3.25;;
72584;SDS011;60618;40.084;32.908;2023-01-26T00:18:42;10.65;;;4.22;;
72584;SDS011;60618;40.084;32.908;2023-01-26T00:21:11;9.07;;;3.20;;
72584;SDS011;60618;40.084;32.908;2023-01-26T00:23:40;11.55;;;3.90;;
72584;SDS011;60618;40.084;32.908;2023-01-26T00:26:08;10.93;;;3.75;;
72584;SDS011;60618;40.084;32.908;2023-01-26T00:28:36;9.90;;;3.33;;
72584;SDS011;60618;40.084;32.908;2023-01-26T00:31:06;9.40;;;3.33;;
72584;SDS011;60618;40.084;32.908;2023-01-26T00:33:37;9.13;;;3.00;;
72584;SDS011;60618;40.084;32.908;2023-01-26T00:36:04;9.60;;;3.10;;
72584;SDS011;60618;40.084;32.908;2023-01-26T00:38:32;10.13;;;3.83;;
72584;SDS011;60618;40.084;32.908;2023-01-26T00:40:59;10.27;;;3.80;;
72584;SDS011;60618;40.084;32.908;2023-01-26T00:43:26;8.70;;;3.33;;
72584;SDS011;60618;40.084;32.908;2023-01-26T00:45:53;10.83;;;3.47;;
72584;SDS011;60618;40.084;32.908;2023-01-26T00:48:20;12.77;;;3.85;;
72584;SDS011;60618;40.084;32.908;2023-01-26T00:50:50;9.85;;;3.70;;
72584;SDS011;60618;40.084;32.908;2023-01-26T00:53:17;11.85;;;4.00;;
72584;SDS011;60618;40.084;32.908;2023-01-26T00:55:45;12.10;;;3.60;;
72584;SDS011;60618;40.084;32.908;2023-01-26T00:58:11;11.17;;;3.90;;
72584;SDS011;60618;40.084;32.908;2023-01-26T01:00:39;9.40;;;3.50;;
72584;SDS011;60618;40.084;32.908;2023-01-26T01:03:06;11.20;;;3.88;;
72584;SDS011;60618;40.084;32.908;2023-01-26T01:05:33;10.77;;;4.53;;
72584;SDS011;60618;40.084;32.908;2023-01-26T01:08:00;11.70;;;4.90;;
72584;SDS011;60618;40.084;32.908;2023-01-26T01:10:28;11.30;;;4.30;;
72584;SDS011;60618;40.084;32.908;2023-01-26T01:12:55;13.90;;;4.53;;
72584;SDS011;60618;40.084;32.908;2023-01-26T01:15:22;11.20;;;4.03;;
72584;SDS011;60618;40.084;32.908;2023-01-26T01:17:50;11.27;;;3.88;;
72584;SDS011;60618;40.084;32.908;2023-01-26T01:20:17;11.75;;;4.10;;
72584;SDS011;60618;40.084;32.908;2023-01-26T01:22:45;11.07;;;4.17;;
72584;SDS011;60618;40.084;32.908;2023-01-26T01:25:12;11.95;;;4.35;;
72584;SDS011;60618;40.084;32.908;2023-01-26T01:27:39;11.00;;;4.10;;
72584;SDS011;60618;40.084;32.908;2023-01-26T01:30:06;9.85;;;4.30;;
72584;SDS011;60618;40.084;32.908;2023-01-26T01:32:35;10.30;;;3.97;;
72584;SDS011;60618;40.084;32.908;2023-01-26T01:35:02;13.30;;;4.37;;
72584;SDS011;60618;40.084;32.908;2023-01-26T01:37:36;12.40;;;4.63;;
72584;SDS011;60618;40.084;32.908;2023-01-26T01:40:03;12.35;;;3.80;;
72584;SDS011;60618;40.084;32.908;2023-01-26T01:42:32;10.30;;;3.72;;
72584;SDS011;60618;40.084;32.908;2023-01-26T01:48:03;10.43;;;4.13;;
72584;SDS011;60618;40.084;32.908;2023-01-26T01:50:43;10.02;;;3.58;;
72584;SDS011;60618;40.084;32.908;2023-01-26T01:53:12;10.90;;;4.18;;
72584;SDS011;60618;40.084;32.908;2023-01-26T01:55:44;11.40;;;3.85;;
72584;SDS011;60618;40.084;32.908;2023-01-26T01:58:12;13.43;;;4.53;;
72584;SDS011;60618;40.084;32.908;2023-01-26T02:00:40;11.90;;;4.37;;
72584;SDS011;60618;40.084;32.908;2023-01-26T02:03:07;11.25;;;4.22;;
72584;SDS011;60618;40.084;32.908;2023-01-26T02:05:49;13.13;;;4.32;;
72584;SDS011;60618;40.084;32.908;2023-01-26T02:08:18;13.38;;;4.47;;
72584;SDS011;60618;40.084;32.908;2023-01-26T02:10:47;11.45;;;3.95;;
72584;SDS011;60618;40.084;32.908;2023-01-26T02:13:19;10.93;;;3.90;;
72584;SDS011;60618;40.084;32.908;2023-01-26T02:15:47;11.38;;;4.38;;
72584;SDS011;60618;40.084;32.908;2023-01-26T02:18:16;12.85;;;4.30;;
72584;SDS011;60618;40.084;32.908;2023-01-26T02:20:44;12.13;;;4.28;;
72584;SDS011;60618;40.084;32.908;2023-01-26T02:23:22;12.30;;;4.70;;
72584;SDS011;60618;40.084;32.908;2023-01-26T02:28:20;11.32;;;4.30;;
72584;SDS011;60618;40.084;32.908;2023-01-26T02:30:50;12.90;;;4.78;;
72584;SDS011;60618;40.084;32.908;2023-01-26T02:33:23;13.63;;;5.30;;
72584;SDS011;60618;40.084;32.908;2023-01-26T02:35:52;12.27;;;4.60;;
72584;SDS011;60618;40.084;32.908;2023-01-26T02:38:20;12.82;;;4.45;;
72584;SDS011;60618;40.084;32.908;2023-01-26T02:43:27;12.68;;;4.18;;
72584;SDS011;60618;40.084;32.908;2023-01-26T02:45:55;12.40;;;4.40;;
72584;SDS011;60618;40.084;32.908;2023-01-26T02:48:22;12.73;;;5.20;;
72584;SDS011;60618;40.084;32.908;2023-01-26T02:50:49;13.30;;;4.45;;
72584;SDS011;60618;40.084;32.908;2023-01-26T02:53:16;14.18;;;4.85;;
72584;SDS011;60618;40.084;32.908;2023-01-26T02:55:43;11.25;;;4.50;;
72584;SDS011;60618;40.084;32.908;2023-01-26T02:58:10;13.45;;;4.65;;
72584;SDS011;60618;40.084;32.908;2023-01-26T03:00:36;12.80;;;5.15;;
72584;SDS011;60618;40.084;32.908;2023-01-26T03:03:06;10.98;;;3.72;;
72584;SDS011;60618;40.084;32.908;2023-01-26T03:05:40;13.82;;;4.95;;
72584;SDS011;60618;40.084;32.908;2023-01-26T03:08:07;11.40;;;4.45;;
72584;SDS011;60618;40.084;32.908;2023-01-26T03:10:34;11.27;;;4.20;;
72584;SDS011;60618;40.084;32.908;2023-01-26T03:13:01;16.05;;;4.47;;
72584;SDS011;60618;40.084;32.908;2023-01-26T03:15:29;11.70;;;4.60;;
72584;SDS011;60618;40.084;32.908;2023-01-26T03:18:06;13.65;;;4.60;;
72584;SDS011;60618;40.084;32.908;2023-01-26T03:20:34;11.45;;;4.45;;
72584;SDS011;60618;40.084;32.908;2023-01-26T03:23:04;12.50;;;5.05;;
72584;SDS011;60618;40.084;32.908;2023-01-26T03:25:35;13.80;;;5.60;;
72584;SDS011;60618;40.084;32.908;2023-01-26T03:28:02;12.38;;;5.10;;
72584;SDS011;60618;40.084;32.908;2023-01-26T03:30:29;15.73;;;5.00;;
72584;SDS011;60618;40.084;32.908;2023-01-26T03:32:56;15.85;;;5.50;;
72584;SDS011;60618;40.084;32.908;2023-01-26T03:35:22;14.57;;;6.13;;
72584;SDS011;60618;40.084;32.908;2023-01-26T03:37:49;14.15;;;5.72;;
72584;SDS011;60618;40.084;32.908;2023-01-26T03:40:16;15.80;;;5.40;;
72584;SDS011;60618;40.084;32.908;2023-01-26T03:42:43;14.55;;;5.70;;
72584;SDS011;60618;40.084;32.908;2023-01-26T03:45:10;15.18;;;5.82;;
72584;SDS011;60618;40.084;32.908;2023-01-26T03:47:37;15.82;;;5.95;;
72584;SDS011;60618;40.084;32.908;2023-01-26T03:50:04;14.50;;;4.85;;
72584;SDS011;60618;40.084;32.908;2023-01-26T03:52:32;13.10;;;4.93;;
72584;SDS011;60618;40.084;32.908;2023-01-26T03:54:59;12.88;;;5.30;;
72584;SDS011;60618;40.084;32.908;2023-01-26T03:57:27;15.43;;;5.60;;
72584;SDS011;60618;40.084;32.908;2023-01-26T03:59:54;14.82;;;5.47;;
72584;SDS011;60618;40.084;32.908;2023-01-26T04:02:21;16.52;;;6.07;;
72584;SDS011;60618;40.084;32.908;2023-01-26T04:04:49;14.95;;;5.32;;
72584;SDS011;60618;40.084;32.908;2023-01-26T04:07:17;17.63;;;6.85;;
72584;SDS011;60618;40.084;32.908;2023-01-26T04:09:44;14.07;;;5.50;;
72584;SDS011;60618;40.084;32.908;2023-01-26T04:12:11;14.35;;;5.47;;
72584;SDS011;60618;40.084;32.908;2023-01-26T04:14:38;14.43;;;6.03;;
72584;SDS011;60618;40.084;32.908;2023-01-26T04:17:16;11.95;;;5.22;;
72584;SDS011;60618;40.084;32.908;2023-01-26T04:19:43;17.50;;;5.57;;
72584;SDS011;60618;40.084;32.908;2023-01-26T04:22:15;13.10;;;4.72;;
72584;SDS011;60618;40.084;32.908;2023-01-26T04:24:41;12.57;;;5.10;;
72584;SDS011;60618;40.084;32.908;2023-01-26T04:27:08;15.13;;;6.20;;
72584;SDS011;60618;40.084;32.908;2023-01-26T04:29:35;15.65;;;5.80;;
72584;SDS011;60618;40.084;32.908;2023-01-26T04:32:02;14.80;;;5.90;;
72584;SDS011;60618;40.084;32.908;2023-01-26T04:34:29;13.95;;;5.70;;
72584;SDS011;60618;40.084;32.908;2023-01-26T04:36:56;14.80;;;5.70;;
72584;SDS011;60618;40.084;32.908;2023-01-26T04:39:23;15.73;;;5.90;;
72584;SDS011;60618;40.084;32.908;2023-01-26T04:41:50;15.05;;;6.07;;
72584;SDS011;60618;40.084;32.908;2023-01-26T04:44:17;16.35;;;5.60;;
72584;SDS011;60618;40.084;32.908;2023-01-26T04:46:44;17.08;;;5.97;;
72584;SDS011;60618;40.084;32.908;2023-01-26T04:51:44;18.48;;;7.68;;
72584;SDS011;60618;40.084;32.908;2023-01-26T04:54:11;18.67;;;8.40;;
72584;SDS011;60618;40.084;32.908;2023-01-26T04:56:38;15.88;;;6.25;;
72584;SDS011;60618;40.084;32.908;2023-01-26T04:59:05;15.48;;;6.47;;
72584;SDS011;60618;40.084;32.908;2023-01-26T05:01:33;16.35;;;6.32;;
72584;SDS011;60618;40.084;32.908;2023-01-26T05:04:00;20.08;;;6.63;;
72584;SDS011;60618;40.084;32.908;2023-01-26T05:06:29;103.57;;;34.25;;
72584;SDS011;60618;40.084;32.908;2023-01-26T05:08:56;42.42;;;15.90;;
72584;SDS011;60618;40.084;32.908;2023-01-26T05:11:23;36.22;;;11.20;;
72584;SDS011;60618;40.084;32.908;2023-01-26T05:13:50;22.00;;;6.45;;
72584;SDS011;60618;40.084;32.908;2023-01-26T05:16:17;19.00;;;6.30;;
72584;SDS011;60618;40.084;32.908;2023-01-26T05:18:44;21.08;;;6.63;;
72584;SDS011;60618;40.084;32.908;2023-01-26T05:21:11;19.23;;;6.10;;
72584;SDS011;60618;40.084;32.908;2023-01-26T05:23:38;17.70;;;5.93;;
72584;SDS011;60618;40.084;32.908;2023-01-26T05:26:05;17.92;;;6.80;;
72584;SDS011;60618;40.084;32.908;2023-01-26T05:28:33;17.73;;;6.88;;
72584;SDS011;60618;40.084;32.908;2023-01-26T05:31:00;15.70;;;6.50;;
72584;SDS011;60618;40.084;32.908;2023-01-26T05:33:27;17.90;;;6.90;;
72584;SDS011;60618;40.084;32.908;2023-01-26T05:35:54;18.58;;;7.53;;
72584;SDS011;60618;40.084;32.908;2023-01-26T05:38:21;23.13;;;8.80;;
72584;SDS011;60618;40.084;32.908;2023-01-26T05:40:48;22.45;;;7.90;;
72584;SDS011;60618;40.084;32.908;2023-01-26T05:43:15;19.20;;;7.83;;
72584;SDS011;60618;40.084;32.908;2023-01-26T05:45:42;22.48;;;8.73;;
72584;SDS011;60618;40.084;32.908;2023-01-26T05:48:09;23.05;;;8.02;;
72584;SDS011;60618;40.084;32.908;2023-01-26T05:50:36;19.98;;;8.48;;
72584;SDS011;60618;40.084;32.908;2023-01-26T05:53:03;21.33;;;8.55;;
72584;SDS011;60618;40.084;32.908;2023-01-26T05:55:30;22.40;;;8.40;;
72584;SDS011;60618;40.084;32.908;2023-01-26T05:57:58;21.25;;;8.50;;
72584;SDS011;60618;40.084;32.908;2023-01-26T06:00:24;21.52;;;8.48;;
72584;SDS011;60618;40.084;32.908;2023-01-26T06:02:51;22.38;;;8.88;;
72584;SDS011;60618;40.084;32.908;2023-01-26T06:05:18;20.75;;;9.18;;
72584;SDS011;60618;40.084;32.908;2023-01-26T06:07:45;20.73;;;8.67;;
72584;SDS011;60618;40.084;32.908;2023-01-26T06:10:12;21.17;;;8.95;;
72584;SDS011;60618;40.084;32.908;2023-01-26T06:12:39;22.38;;;9.10;;
72584;SDS011;60618;40.084;32.908;2023-01-26T06:15:06;26.92;;;8.77;;
72584;SDS011;60618;40.084;32.908;2023-01-26T06:17:34;22.42;;;8.57;;
72584;SDS011;60618;40.084;32.908;2023-01-26T06:20:00;23.53;;;9.17;;
72584;SDS011;60618;40.084;32.908;2023-01-26T06:22:27;26.85;;;8.93;;
72584;SDS011;60618;40.084;32.908;2023-01-26T06:24:55;22.92;;;9.10;;
72584;SDS011;60618;40.084;32.908;2023-01-26T06:27:22;26.55;;;10.13;;
72584;SDS011;60618;40.084;32.908;2023-01-26T06:29:49;23.08;;;9.82;;
72584;SDS011;60618;40.084;32.908;2023-01-26T06:32:16;32.63;;;9.73;;
72584;SDS011;60618;40.084;32.908;2023-01-26T06:34:43;27.02;;;9.57;;
72584;SDS011;60618;40.084;32.908;2023-01-26T06:37:12;26.60;;;9.40;;
72584;SDS011;60618;40.084;32.908;2023-01-26T06:39:39;27.05;;;9.30;;
72584;SDS011;60618;40.084;32.908;2023-01-26T06:42:06;26.13;;;9.10;;
72584;SDS011;60618;40.084;32.908;2023-01-26T06:44:34;29.97;;;10.60;;
72584;SDS011;60618;40.084;32.908;2023-01-26T06:47:01;28.00;;;10.20;;
72584;SDS011;60618;40.084;32.908;2023-01-26T06:49:27;27.88;;;10.50;;
72584;SDS011;60618;40.084;32.908;2023-01-26T06:52:02;25.95;;;10.60;;
72584;SDS011;60618;40.084;32.908;2023-01-26T06:54:31;30.70;;;10.60;;
72584;SDS011;60618;40.084;32.908;2023-01-26T06:57:01;26.87;;;10.53;;
72584;SDS011;60618;40.084;32.908;2023-01-26T06:59:30;29.65;;;11.05;;
72584;SDS011;60618;40.084;32.908;2023-01-26T07:01:57;35.45;;;12.75;;
72584;SDS011;60618;40.084;32.908;2023-01-26T07:04:24;32.42;;;12.65;;
72584;SDS011;60618;40.084;32.908;2023-01-26T07:06:51;30.33;;;11.90;;
72584;SDS011;60618;40.084;32.908;2023-01-26T07:09:18;29.03;;;12.50;;
72584;SDS011;60618;40.084;32.908;2023-01-26T07:11:45;35.60;;;13.60;;
72584;SDS011;60618;40.084;32.908;2023-01-26T07:14:12;36.63;;;13.57;;
72584;SDS011;60618;40.084;32.908;2023-01-26T07:16:39;35.60;;;14.13;;
72584;SDS011;60618;40.084;32.908;2023-01-26T07:19:06;39.17;;;13.63;;
72584;SDS011;60618;40.084;32.908;2023-01-26T07:21:33;40.17;;;13.63;;
72584;SDS011;60618;40.084;32.908;2023-01-26T07:24:00;39.30;;;14.85;;
72584;SDS011;60618;40.084;32.908;2023-01-26T07:26:27;37.08;;;14.38;;
72584;SDS011;60618;40.084;32.908;2023-01-26T07:28:54;38.58;;;15.68;;
72584;SDS011;60618;40.084;32.908;2023-01-26T07:31:21;36.17;;;15.60;;
72584;SDS011;60618;40.084;32.908;2023-01-26T07:33:48;39.57;;;15.33;;
72584;SDS011;60618;40.084;32.908;2023-01-26T07:36:15;35.63;;;15.15;;
72584;SDS011;60618;40.084;32.908;2023-01-26T07:38:42;36.75;;;15.00;;
72584;SDS011;60618;40.084;32.908;2023-01-26T07:41:10;35.83;;;14.82;;
72584;SDS011;60618;40.084;32.908;2023-01-26T07:43:38;34.13;;;14.23;;
72584;SDS011;60618;40.084;32.908;2023-01-26T07:46:05;36.43;;;15.57;;
72584;SDS011;60618;40.084;32.908;2023-01-26T07:48:35;38.50;;;15.32;;
72584;SDS011;60618;40.084;32.908;2023-01-26T07:51:03;38.55;;;15.98;;
72584;SDS011;60618;40.084;32.908;2023-01-26T07:53:30;39.47;;;15.57;;
72584;SDS011;60618;40.084;32.908;2023-01-26T07:56:07;37.63;;;15.27;;
72584;SDS011;60618;40.084;32.908;2023-01-26T07:58:35;39.80;;;15.40;;
72584;SDS011;60618;40.084;32.908;2023-01-26T08:01:05;37.65;;;14.73;;
72584;SDS011;60618;40.084;32.908;2023-01-26T08:03:40;36.22;;;14.65;;
72584;SDS011;60618;40.084;32.908;2023-01-26T08:06:08;42.00;;;14.23;;
72584;SDS011;60618;40.084;32.908;2023-01-26T08:08:40;39.63;;;14.02;;
72584;SDS011;60618;40.084;32.908;2023-01-26T08:11:07;38.70;;;13.57;;
72584;SDS011;60618;40.084;32.908;2023-01-26T08:13:35;40.78;;;13.90;;
72584;SDS011;60618;40.084;32.908;2023-01-26T08:16:06;41.92;;;15.88;;
72584;SDS011;60618;40.084;32.908;2023-01-26T08:18:35;49.28;;;15.65;;
72584;SDS011;60618;40.084;32.908;2023-01-26T08:21:02;43.30;;;15.38;;
72584;SDS011;60618;40.084;32.908;2023-01-26T08:23:29;44.43;;;15.20;;
72584;SDS011;60618;40.084;32.908;2023-01-26T08:26:00;48.50;;;13.45;;
72584;SDS011;60618;40.084;32.908;2023-01-26T08:28:31;39.83;;;13.60;;
72584;SDS011;60618;40.084;32.908;2023-01-26T08:31:03;27.13;;;10.57;;
72584;SDS011;60618;40.084;32.908;2023-01-26T08:33:31;29.65;;;11.07;;
72584;SDS011;60618;40.084;32.908;2023-01-26T08:36:05;28.10;;;10.20;;
72584;SDS011;60618;40.084;32.908;2023-01-26T08:38:35;24.08;;;9.95;;
72584;SDS011;60618;40.084;32.908;2023-01-26T08:41:02;23.50;;;9.65;;
72584;SDS011;60618;40.084;32.908;2023-01-26T08:43:30;24.40;;;8.93;;
72584;SDS011;60618;40.084;32.908;2023-01-26T08:45:57;21.42;;;9.02;;
72584;SDS011;60618;40.084;32.908;2023-01-26T08:48:24;22.63;;;9.20;;
72584;SDS011;60618;40.084;32.908;2023-01-26T08:50:54;22.25;;;8.60;;
72584;SDS011;60618;40.084;32.908;2023-01-26T08:53:23;20.40;;;9.07;;
72584;SDS011;60618;40.084;32.908;2023-01-26T08:55:50;22.70;;;9.25;;
72584;SDS011;60618;40.084;32.908;2023-01-26T08:58:17;28.52;;;9.48;;
72584;SDS011;60618;40.084;32.908;2023-01-26T09:00:44;21.40;;;7.93;;
72584;SDS011;60618;40.084;32.908;2023-01-26T09:03:11;22.13;;;9.15;;
72584;SDS011;60618;40.084;32.908;2023-01-26T09:05:39;23.17;;;8.50;;
72584;SDS011;60618;40.084;32.908;2023-01-26T09:08:07;24.67;;;9.45;;
72584;SDS011;60618;40.084;32.908;2023-01-26T09:10:36;25.20;;;8.77;;
72584;SDS011;60618;40.084;32.908;2023-01-26T09:13:03;25.13;;;9.73;;
72584;SDS011;60618;40.084;32.908;2023-01-26T09:15:31;27.35;;;11.52;;
72584;SDS011;60618;40.084;32.908;2023-01-26T09:17:58;22.02;;;9.20;;
72584;SDS011;60618;40.084;32.908;2023-01-26T09:20:26;21.23;;;8.20;;
72584;SDS011;60618;40.084;32.908;2023-01-26T09:22:53;25.67;;;8.65;;
72584;SDS011;60618;40.084;32.908;2023-01-26T09:25:20;29.17;;;9.20;;
72584;SDS011;60618;40.084;32.908;2023-01-26T09:27:47;19.60;;;8.60;;
72584;SDS011;60618;40.084;32.908;2023-01-26T09:30:14;21.05;;;8.90;;
72584;SDS011;60618;40.084;32.908;2023-01-26T09:32:42;20.77;;;9.15;;
72584;SDS011;60618;40.084;32.908;2023-01-26T09:35:08;25.33;;;9.60;;
72584;SDS011;60618;40.084;32.908;2023-01-26T09:37:39;24.97;;;9.03;;
72584;SDS011;60618;40.084;32.908;2023-01-26T09:40:08;25.23;;;10.75;;
72584;SDS011;60618;40.084;32.908;2023-01-26T09:51:24;25.23;;;11.50;;
72584;SDS011;60618;40.084;32.908;2023-01-26T09:54:03;25.67;;;11.63;;
72584;SDS011;60618;40.084;32.908;2023-01-26T09:56:48;26.58;;;11.15;;
72584;SDS011;60618;40.084;32.908;2023-01-26T09:59:35;26.33;;;11.23;;
72584;SDS011;60618;40.084;32.908;2023-01-26T10:04:38;27.53;;;10.90;;
72584;SDS011;60618;40.084;32.908;2023-01-26T10:07:12;27.45;;;10.80;;
72584;SDS011;60618;40.084;32.908;2023-01-26T10:09:44;26.98;;;11.57;;
72584;SDS011;60618;40.084;32.908;2023-01-26T10:12:18;29.55;;;11.93;;
72584;SDS011;60618;40.084;32.908;2023-01-26T10:17:53;27.33;;;12.40;;
72584;SDS011;60618;40.084;32.908;2023-01-26T10:20:23;27.05;;;11.48;;
72584;SDS011;60618;40.084;32.908;2023-01-26T10:22:58;27.08;;;11.93;;
72584;SDS011;60618;40.084;32.908;2023-01-26T10:25:37;30.92;;;12.13;;
72584;SDS011;60618;40.084;32.908;2023-01-26T10:28:12;26.45;;;11.98;;
72584;SDS011;60618;40.084;32.908;2023-01-26T10:30:42;29.60;;;12.53;;
72584;SDS011;60618;40.084;32.908;2023-01-26T10:33:30;30.58;;;12.30;;
72584;SDS011;60618;40.084;32.908;2023-01-26T10:35:58;26.60;;;11.20;;
72584;SDS011;60618;40.084;32.908;2023-01-26T10:40:59;29.05;;;11.82;;
72584;SDS011;60618;40.084;32.908;2023-01-26T10:43:30;29.03;;;11.80;;
72584;SDS011;60618;40.084;32.908;2023-01-26T10:46:29;29.20;;;11.95;;
72584;SDS011;60618;40.084;32.908;2023-01-26T10:51:35;32.13;;;12.98;;
72584;SDS011;60618;40.084;32.908;2023-01-26T10:59:51;31.25;;;12.82;;
72584;SDS011;60618;40.084;32.908;2023-01-26T11:02:26;32.38;;;13.40;;
72584;SDS011;60618;40.084;32.908;2023-01-26T11:07:34;30.95;;;13.13;;
72584;SDS011;60618;40.084;32.908;2023-01-26T11:10:21;32.27;;;13.03;;
72584;SDS011;60618;40.084;32.908;2023-01-26T11:12:49;27.88;;;12.05;;
72584;SDS011;60618;40.084;32.908;2023-01-26T11:15:22;33.75;;;14.13;;
72584;SDS011;60618;40.084;32.908;2023-01-26T11:17:59;31.60;;;14.32;;
72584;SDS011;60618;40.084;32.908;2023-01-26T11:28:46;38.50;;;15.65;;
72584;SDS011;60618;40.084;32.908;2023-01-26T11:36:53;38.63;;;16.67;;
72584;SDS011;60618;40.084;32.908;2023-01-26T11:42:02;36.08;;;16.52;;
72584;SDS011;60618;40.084;32.908;2023-01-26T11:47:22;39.63;;;17.63;;
72584;SDS011;60618;40.084;32.908;2023-01-26T12:01:09;41.63;;;18.33;;
72584;SDS011;60618;40.084;32.908;2023-01-26T12:04:04;42.63;;;19.53;;
72584;SDS011;60618;40.084;32.908;2023-01-26T12:06:43;47.13;;;20.95;;
72584;SDS011;60618;40.084;32.908;2023-01-26T12:12:07;48.30;;;18.98;;
72584;SDS011;60618;40.084;32.908;2023-01-26T12:17:27;41.27;;;16.80;;
72584;SDS011;60618;40.084;32.908;2023-01-26T12:20:11;44.28;;;17.83;;
72584;SDS011;60618;40.084;32.908;2023-01-26T12:23:00;34.10;;;15.05;;
72584;SDS011;60618;40.084;32.908;2023-01-26T12:25:32;40.70;;;17.30;;
72584;SDS011;60618;40.084;32.908;2023-01-26T12:28:22;42.83;;;18.98;;
72584;SDS011;60618;40.084;32.908;2023-01-26T12:33:33;49.35;;;20.05;;
72584;SDS011;60618;40.084;32.908;2023-01-26T12:44:32;45.80;;;18.77;;
72584;SDS011;60618;40.084;32.908;2023-01-26T12:47:12;47.55;;;19.90;;
72584;SDS011;60618;40.084;32.908;2023-01-26T12:55:14;47.47;;;19.52;;
72584;SDS011;60618;40.084;32.908;2023-01-26T12:58:32;41.40;;;17.80;;
72584;SDS011;60618;40.084;32.908;2023-01-26T13:01:06;38.22;;;16.35;;
72584;SDS011;60618;40.084;32.908;2023-01-26T13:03:39;42.47;;;17.63;;
72584;SDS011;60618;40.084;32.908;2023-01-26T13:06:18;33.40;;;14.30;;
72584;SDS011;60618;40.084;32.908;2023-01-26T13:17:50;41.53;;;16.63;;
72584;SDS011;60618;40.084;32.908;2023-01-26T13:19:51;40.05;;;15.15;;
72584;SDS011;60618;40.084;32.908;2023-01-26T13:27:53;41.15;;;15.55;;
72584;SDS011;60618;40.084;32.908;2023-01-26T13:35:18;41.53;;;16.40;;
72584;SDS011;60618;40.084;32.908;2023-01-26T13:40:22;39.25;;;14.80;;
72584;SDS011;60618;40.084;32.908;2023-01-26T13:43:00;34.30;;;14.82;;
72584;SDS011;60618;40.084;32.908;2023-01-26T13:48:31;36.13;;;15.85;;
72584;SDS011;60618;40.084;32.908;2023-01-26T13:51:00;40.33;;;16.70;;
72584;SDS011;60618;40.084;32.908;2023-01-26T13:56:03;41.42;;;15.55;;
72584;SDS011;60618;40.084;32.908;2023-01-26T13:58:33;36.72;;;14.80;;
72584;SDS011;60618;40.084;32.908;2023-01-26T14:01:00;38.60;;;13.98;;
72584;SDS011;60618;40.084;32.908;2023-01-26T14:03:31;33.87;;;14.63;;
72584;SDS011;60618;40.084;32.908;2023-01-26T14:06:17;36.35;;;15.68;;
72584;SDS011;60618;40.084;32.908;2023-01-26T14:21:51;33.25;;;14.77;;
72584;SDS011;60618;40.084;32.908;2023-01-26T14:24:33;37.40;;;15.05;;
72584;SDS011;60618;40.084;32.908;2023-01-26T14:27:02;34.92;;;14.73;;
72584;SDS011;60618;40.084;32.908;2023-01-26T14:29:29;33.63;;;13.20;;
72584;SDS011;60618;40.084;32.908;2023-01-26T14:31:57;32.95;;;14.15;;
72584;SDS011;60618;40.084;32.908;2023-01-26T14:34:26;34.95;;;14.25;;
72584;SDS011;60618;40.084;32.908;2023-01-26T14:37:05;32.38;;;13.75;;
72584;SDS011;60618;40.084;32.908;2023-01-26T14:39:43;36.67;;;13.90;;
72584;SDS011;60618;40.084;32.908;2023-01-26T14:42:14;42.23;;;15.17;;
72584;SDS011;60618;40.084;32.908;2023-01-26T14:44:44;42.65;;;15.18;;
72584;SDS011;60618;40.084;32.908;2023-01-26T14:47:19;41.03;;;15.18;;
72584;SDS011;60618;40.084;32.908;2023-01-26T14:49:52;37.67;;;13.13;;
72584;SDS011;60618;40.084;32.908;2023-01-26T14:52:42;49.25;;;15.25;;
72584;SDS011;60618;40.084;32.908;2023-01-26T14:57:46;41.10;;;14.90;;
72584;SDS011;60618;40.084;32.908;2023-01-26T15:00:32;38.83;;;13.45;;
72584;SDS011;60618;40.084;32.908;2023-01-26T15:03:03;35.70;;;13.55;;
72584;SDS011;60618;40.084;32.908;2023-01-26T15:05:37;39.13;;;14.45;;
72584;SDS011;60618;40.084;32.908;2023-01-26T15:10:53;48.83;;;15.35;;
72584;SDS011;60618;40.084;32.908;2023-01-26T15:13:22;42.60;;;15.13;;
72584;SDS011;60618;40.084;32.908;2023-01-26T15:16:05;39.25;;;14.27;;
72584;SDS011;60618;40.084;32.908;2023-01-26T15:18:37;35.38;;;13.57;;
72584;SDS011;60618;40.084;32.908;2023-01-26T15:23:31;33.88;;;12.88;;
72584;SDS011;60618;40.084;32.908;2023-01-26T15:26:21;35.03;;;14.93;;
72584;SDS011;60618;40.084;32.908;2023-01-26T15:28:50;37.10;;;14.88;;
72584;SDS011;60618;40.084;32.908;2023-01-26T15:31:40;36.50;;;12.88;;
72584;SDS011;60618;40.084;32.908;2023-01-26T15:34:27;34.50;;;13.70;;
72584;SDS011;60618;40.084;32.908;2023-01-26T15:37:03;34.67;;;14.13;;
72584;SDS011;60618;40.084;32.908;2023-01-26T15:39:54;34.80;;;14.05;;
72584;SDS011;60618;40.084;32.908;2023-01-26T15:42:22;37.63;;;14.63;;
72584;SDS011;60618;40.084;32.908;2023-01-26T15:44:50;38.33;;;12.43;;
72584;SDS011;60618;40.084;32.908;2023-01-26T15:47:17;36.20;;;13.07;;
72584;SDS011;60618;40.084;32.908;2023-01-26T15:49:44;33.15;;;12.25;;
72584;SDS011;60618;40.084;32.908;2023-01-26T15:52:12;32.25;;;12.43;;
72584;SDS011;60618;40.084;32.908;2023-01-26T15:54:40;33.58;;;12.35;;
72584;SDS011;60618;40.084;32.908;2023-01-26T15:57:08;34.10;;;13.27;;
72584;SDS011;60618;40.084;32.908;2023-01-26T15:59:37;34.60;;;13.13;;
72584;SDS011;60618;40.084;32.908;2023-01-26T16:02:14;36.85;;;14.07;;
72584;SDS011;60618;40.084;32.908;2023-01-26T16:04:43;32.05;;;13.10;;
72584;SDS011;60618;40.084;32.908;2023-01-26T16:07:11;28.73;;;11.02;;
72584;SDS011;60618;40.084;32.908;2023-01-26T16:09:39;34.92;;;12.93;;
72584;SDS011;60618;40.084;32.908;2023-01-26T16:12:14;40.27;;;13.87;;
72584;SDS011;60618;40.084;32.908;2023-01-26T16:14:58;36.92;;;15.25;;
72584;SDS011;60618;40.084;32.908;2023-01-26T16:17:26;40.83;;;16.10;;
72584;SDS011;60618;40.084;32.908;2023-01-26T16:19:52;39.67;;;15.60;;
72584;SDS011;60618;40.084;32.908;2023-01-26T16:22:19;37.58;;;14.60;;
72584;SDS011;60618;40.084;32.908;2023-01-26T16:24:46;36.23;;;14.53;;
72584;SDS011;60618;40.084;32.908;2023-01-26T16:27:13;35.78;;;14.82;;
72584;SDS011;60618;40.084;32.908;2023-01-26T16:29:40;40.17;;;15.60;;
72584;SDS011;60618;40.084;32.908;2023-01-26T16:32:13;39.80;;;15.65;;
72584;SDS011;60618;40.084;32.908;2023-01-26T16:34:51;41.33;;;15.63;;
72584;SDS011;60618;40.084;32.908;2023-01-26T16:37:18;41.60;;;15.90;;
72584;SDS011;60618;40.084;32.908;2023-01-26T16:39:45;37.28;;;14.52;;
72584;SDS011;60618;40.084;32.908;2023-01-26T16:42:12;37.83;;;15.07;;
72584;SDS011;60618;40.084;32.908;2023-01-26T16:44:44;35.05;;;13.75;;
72584;SDS011;60618;40.084;32.908;2023-01-26T16:47:11;40.70;;;15.88;;
72584;SDS011;60618;40.084;32.908;2023-01-26T16:49:38;41.27;;;15.20;;
72584;SDS011;60618;40.084;32.908;2023-01-26T16:52:06;45.13;;;18.58;;